Cory, Colorado
Current Conditions -  °F | °C
As of 6:55 PM on Wednesday 26 Nov 2014 (Local Time) from KAJZ Reporting Station
Clear Clear  
Wind Chill: 37°   Ceiling: Unl
Heat Index: 42°   Visibility: 10mi
Dew Point: 26°   Wind: 8mph
Humidity: 53%   Direction: 50°NE
Pressure: 30.42"   Gusts: NA
Location:  38.79°N, 107.99°W
Report Text: KAJZ 270155Z AUTO 05007KT 10SM CLR 06/M03 A3042 RMK AO2 T00561033
Loading
Personal Weather Stations






























Interactive Weather Map New forecast layout! Learn more

10-Day Weather Forecast

Advertisements
Track Severe Weather on mobile